Time;durP1;ratioP1;P1;durP2;ratioP2;P2;SDS_P1;SDS_P2;PMS_P1;PMS_P2;Temp;Humidity;BMP_temperature;BMP_pressure;BME280_temperature;BME280_humidity;BME280_pressure;Samples;Min_cycle;Max_cycle;Signal;HPM_P1;HPM_P2
2021/10/02 00:31:40;;;;;;;1431.97;571.17;;;13.70;99.90;;;;;;5079963;28;20460;-78
2021/10/02 00:34:22;;;;;;;1273.27;607.13;;;13.70;99.90;;;;;;5080720;28;20563;-78
2021/10/02 00:45:17;;;;;;;163.70;85.00;;;13.60;99.90;;;;;;5135118;28;20935;-78
2021/10/02 00:47:45;;;;;;;1077.17;566.43;;;13.60;99.90;;;;;;5137247;27;20177;-79
2021/10/02 00:50:13;;;;;;;1306.47;677.13;;;13.70;99.90;;;;;;5135307;28;20486;-79
2021/10/02 00:52:46;;;;;;;11.85;10.63;;;13.60;99.90;;;;;;5133729;27;20448;-78
2021/10/02 00:55:16;;;;;;;132.77;65.73;;;13.80;99.90;;;;;;5135923;28;20492;-79
2021/10/02 00:57:44;;;;;;;529.10;263.07;;;13.80;99.90;;;;;;5135573;27;20466;-79
2021/10/02 01:00:13;;;;;;;1085.97;526.77;;;13.70;99.90;;;;;;5136819;27;20438;-78
2021/10/02 01:02:51;;;;;;;1622.70;663.93;;;13.70;99.90;;;;;;5134805;28;20480;-78
2021/10/02 01:05:47;;;;;;;1282.73;523.63;;;13.70;99.90;;;;;;5135677;28;20485;-78
2021/10/02 01:08:29;;;;;;;1641.53;663.67;;;13.60;99.90;;;;;;5134441;28;20447;-78
2021/10/02 01:11:13;;;;;;;1591.37;621.77;;;13.70;99.90;;;;;;5134989;27;20815;-79
2021/10/02 01:13:47;;;;;;;1687.23;611.97;;;13.60;99.90;;;;;;5135508;27;20469;-79
2021/10/02 01:16:23;;;;;;;1782.13;686.87;;;13.60;99.90;;;;;;5136085;28;20460;-78
2021/10/02 01:18:58;;;;;;;1869.83;813.03;;;13.60;99.90;;;;;;5135721;27;21067;-78
2021/10/02 01:21:47;;;;;;;1843.23;730.80;;;13.60;99.90;;;;;;5134910;28;20521;-78
2021/10/02 01:24:36;;;;;;;1541.17;583.73;;;13.60;99.90;;;;;;5135122;28;20442;-79
2021/10/02 01:27:39;;;;;;;13.30;12.00;;;13.60;99.90;;;;;;5134522;27;20525;-79
2021/10/02 01:30:14;;;;;;;334.70;181.33;;;13.70;99.90;;;;;;5124304;27;20450;-78
2021/10/02 01:32:52;;;;;;;14.15;12.45;;;13.70;99.90;;;;;;5133045;27;20438;-78
2021/10/02 01:35:29;;;;;;;131.07;79.17;;;13.70;99.90;;;;;;5136542;27;20545;-79
2021/10/02 01:49:22;;;;;;;1604.90;673.10;;;13.60;99.90;;;;;;5099804;28;20523;-78
2021/10/02 01:51:51;;;;;;;1066.17;476.43;;;13.60;99.90;;;;;;5122633;28;20526;-78
2021/10/02 01:54:20;;;;;;;1422.53;645.07;;;13.60;99.90;;;;;;5120663;28;20443;-79
2021/10/02 01:56:50;;;;;;;1467.40;598.30;;;13.60;99.90;;;;;;5121494;28;20895;-78
2021/10/02 01:59:20;;;;;;;1398.70;606.53;;;13.70;99.90;;;;;;5121120;28;20471;-79
2021/10/02 02:01:50;;;;;;;1700.43;652.70;;;13.60;99.90;;;;;;5121791;28;20439;-80
2021/10/02 02:04:21;;;;;;;1429.37;618.00;;;13.70;99.90;;;;;;5120779;28;20448;-80
2021/10/02 02:06:50;;;;;;;265.95;121.68;;;13.60;99.90;;;;;;5120657;28;20443;-78
2021/10/02 02:09:20;;;;;;;882.17;443.97;;;13.70;99.90;;;;;;5120514;28;20190;-79
2021/10/02 02:11:48;;;;;;;1440.20;633.37;;;13.70;99.90;;;;;;5121389;28;20452;-79
2021/10/02 02:14:17;;;;;;;16.73;14.93;;;13.60;99.90;;;;;;5119024;28;20518;-78
2021/10/02 02:16:48;;;;;;;82.07;58.03;;;13.70;99.90;;;;;;5120557;28;20216;-79
2021/10/02 02:19:19;;;;;;;354.47;218.73;;;13.80;99.90;;;;;;5121462;28;20471;-78
2021/10/02 02:21:48;;;;;;;664.60;384.67;;;13.70;99.90;;;;;;5121851;28;20416;-79
2021/10/02 02:24:16;;;;;;;895.00;463.00;;;13.70;99.90;;;;;;5120511;28;20550;-79
2021/10/02 02:26:45;;;;;;;1083.90;524.73;;;13.80;99.90;;;;;;5120564;28;20549;-79
2021/10/02 02:29:13;;;;;;;797.70;419.23;;;13.70;99.90;;;;;;5119702;28;20450;-78
2021/10/02 02:31:42;;;;;;;1412.40;613.40;;;13.70;99.90;;;;;;5121762;28;20447;-79
2021/10/02 02:34:11;;;;;;;1402.23;684.77;;;13.70;99.90;;;;;;5119456;28;20451;-78
2021/10/02 02:36:40;;;;;;;1598.30;667.03;;;13.70;99.90;;;;;;5119269;28;20550;-78
2021/10/02 02:39:09;;;;;;;1068.77;505.30;;;13.70;99.90;;;;;;5120072;28;20457;-78
2021/10/02 02:41:37;;;;;;;1373.13;626.60;;;13.70;99.90;;;;;;5119860;28;20854;-79
2021/10/02 02:44:06;;;;;;;1715.40;719.97;;;13.70;99.90;;;;;;5119855;28;20452;-79
2021/10/02 02:46:37;;;;;;;1671.70;720.63;;;13.70;99.90;;;;;;5120185;28;20530;-79
2021/10/02 02:49:13;;;;;;;19.63;17.80;;;13.70;99.90;;;;;;5118344;28;20441;-79
2021/10/02 02:51:51;;;;;;;67.90;61.70;;;13.80;99.90;;;;;;5120688;28;20181;-79
2021/10/02 02:54:27;;;;;;;18.88;17.08;;;13.80;99.90;;;;;;5119549;28;20453;-79
2021/10/02 02:57:00;;;;;;;41.23;37.23;;;13.90;99.90;;;;;;5119056;28;20312;-78
2021/10/02 02:59:33;;;;;;;383.83;236.20;;;13.90;99.90;;;;;;5119720;28;21048;-78
2021/10/02 03:02:05;;;;;;;665.87;350.77;;;13.90;99.90;;;;;;5119948;28;20398;-78
2021/10/02 03:04:36;;;;;;;660.97;368.83;;;13.80;99.90;;;;;;5118734;28;20864;-78
2021/10/02 03:07:08;;;;;;;755.73;391.53;;;13.80;99.90;;;;;;5119164;28;20513;-78
2021/10/02 03:09:41;;;;;;;1145.37;553.30;;;13.80;99.90;;;;;;5118824;28;20797;-78
2021/10/02 03:12:11;;;;;;;1131.50;554.93;;;13.80;99.90;;;;;;5118811;28;20443;-79
2021/10/02 03:14:45;;;;;;;1164.27;523.67;;;13.80;99.90;;;;;;5120662;28;20511;-78
2021/10/02 03:17:16;;;;;;;995.77;502.77;;;13.80;99.90;;;;;;5118995;28;20901;-79
2021/10/02 03:19:46;;;;;;;1203.70;521.17;;;13.80;99.90;;;;;;5118628;27;20463;-78
2021/10/02 03:22:16;;;;;;;1308.87;617.90;;;13.80;99.90;;;;;;5120526;28;20514;-79
2021/10/02 03:24:46;;;;;;;1391.17;629.20;;;13.80;99.90;;;;;;5119935;28;20439;-79
2021/10/02 03:27:15;;;;;;;1442.63;630.10;;;13.80;99.90;;;;;;5118796;28;20463;-79
2021/10/02 03:29:44;;;;;;;24.63;22.17;;;13.80;99.90;;;;;;5117377;28;20527;-78
2021/10/02 03:32:13;;;;;;;361.00;149.00;;;13.80;99.90;;;;;;5118895;28;20193;-79
2021/10/02 03:34:41;;;;;;;44.42;35.60;;;13.90;99.90;;;;;;5118548;28;20452;-78
2021/10/02 03:37:10;;;;;;;178.47;147.17;;;13.90;99.90;;;;;;5118328;28;20241;-79
2021/10/02 03:39:38;;;;;;;465.77;289.97;;;13.90;99.90;;;;;;5119147;28;20470;-78
2021/10/02 03:42:10;;;;;;;704.93;410.07;;;13.90;99.90;;;;;;5118612;28;20897;-79
2021/10/02 03:44:44;;;;;;;844.60;421.57;;;13.90;99.90;;;;;;5119371;28;20439;-78
2021/10/02 03:47:14;;;;;;;707.50;370.07;;;13.90;99.90;;;;;;5118223;28;20907;-78
2021/10/02 03:49:43;;;;;;;839.33;433.17;;;13.80;99.90;;;;;;5118526;28;20936;-79
2021/10/02 03:52:14;;;;;;;989.90;468.70;;;13.80;99.90;;;;;;5118201;28;20518;-79
2021/10/02 03:54:43;;;;;;;848.30;379.73;;;13.80;99.90;;;;;;5118225;28;20485;-78
2021/10/02 03:57:11;;;;;;;1023.30;509.37;;;13.80;99.90;;;;;;5118114;28;21014;-78
2021/10/02 03:59:39;;;;;;;1051.83;506.83;;;13.80;99.90;;;;;;5117916;28;20467;-79
2021/10/02 04:02:08;;;;;;;1124.70;517.53;;;13.80;99.90;;;;;;5118581;28;21027;-78
2021/10/02 04:04:36;;;;;;;32.72;29.60;;;13.80;99.90;;;;;;5117848;28;20435;-78
2021/10/02 04:07:04;;;;;;;129.23;91.83;;;13.90;99.90;;;;;;5117895;28;20341;-78
2021/10/02 04:09:35;;;;;;;319.40;225.53;;;13.90;99.90;;;;;;5118547;28;20812;-79
2021/10/02 04:12:04;;;;;;;818.40;422.27;;;13.90;99.90;;;;;;5117426;28;20534;-79
2021/10/02 04:14:33;;;;;;;805.53;416.20;;;13.90;99.90;;;;;;5117556;28;20500;-79
2021/10/02 04:17:04;;;;;;;831.17;417.10;;;13.90;99.90;;;;;;5117853;28;20593;-78
2021/10/02 04:19:32;;;;;;;891.17;457.57;;;13.90;99.90;;;;;;5117785;28;20473;-79
2021/10/02 04:22:00;;;;;;;639.90;355.10;;;13.90;99.90;;;;;;5117533;28;20958;-79
2021/10/02 04:24:28;;;;;;;910.87;427.20;;;13.90;99.90;;;;;;5118016;28;20512;-79
2021/10/02 04:26:59;;;;;;;859.00;487.77;;;13.90;99.90;;;;;;5118128;28;20442;-78
2021/10/02 04:29:28;;;;;;;835.00;454.00;;;13.90;99.90;;;;;;5117939;28;20447;-78
2021/10/02 04:31:57;;;;;;;1036.43;542.80;;;13.90;99.90;;;;;;5117748;28;20471;-79
2021/10/02 04:34:25;;;;;;;928.40;479.23;;;13.80;99.90;;;;;;5117503;28;20479;-78
2021/10/02 04:36:53;;;;;;;831.10;418.67;;;13.90;99.90;;;;;;5116813;28;20434;-79
2021/10/02 04:39:21;;;;;;;623.97;318.70;;;13.90;99.90;;;;;;5117044;28;20501;-78
2021/10/02 04:41:50;;;;;;;34.13;30.83;;;13.90;99.90;;;;;;5115525;28;20814;-78
2021/10/02 04:44:19;;;;;;;86.53;60.03;;;13.90;99.90;;;;;;5117605;28;20547;-78
2021/10/02 04:46:49;;;;;;;41.97;36.80;;;13.90;99.90;;;;;;5116619;28;20413;-78
2021/10/02 04:49:17;;;;;;;60.37;54.07;;;14.00;99.90;;;;;;5117491;28;20201;-78
2021/10/02 04:51:45;;;;;;;191.27;139.57;;;13.90;99.90;;;;;;5117489;28;20444;-78
2021/10/02 04:54:13;;;;;;;292.53;194.80;;;13.90;99.90;;;;;;5117578;28;20444;-79
2021/10/02 04:56:41;;;;;;;326.17;223.57;;;13.90;99.90;;;;;;5117530;28;20558;-78
2021/10/02 04:59:10;;;;;;;512.77;257.00;;;13.90;99.90;;;;;;5118807;28;20463;-78
2021/10/02 05:01:39;;;;;;;663.17;335.03;;;13.90;99.90;;;;;;5118887;28;20532;-79
2021/10/02 05:04:08;;;;;;;652.60;326.17;;;13.90;99.90;;;;;;5118501;28;20526;-79
2021/10/02 05:06:36;;;;;;;729.43;368.33;;;13.90;99.90;;;;;;5117236;28;21016;-79
2021/10/02 05:09:04;;;;;;;912.47;448.37;;;13.90;99.90;;;;;;5115336;28;20439;-78
2021/10/02 05:11:32;;;;;;;638.40;397.67;;;13.90;99.90;;;;;;5116554;28;20451;-78
2021/10/02 05:14:01;;;;;;;913.03;459.23;;;13.90;99.90;;;;;;5116327;28;20500;-78
2021/10/02 05:16:29;;;;;;;1192.87;576.00;;;13.90;99.90;;;;;;5116324;28;20442;-78
2021/10/02 05:18:59;;;;;;;1030.83;452.93;;;13.90;99.90;;;;;;5116324;28;20964;-78
2021/10/02 05:21:27;;;;;;;809.93;417.57;;;13.90;99.90;;;;;;5116100;28;20459;-78
2021/10/02 05:23:55;;;;;;;947.50;464.77;;;13.90;99.90;;;;;;5117984;28;20439;-78
2021/10/02 05:26:24;;;;;;;705.03;398.93;;;13.90;99.90;;;;;;5120352;28;21049;-79
2021/10/02 05:28:52;;;;;;;771.13;422.60;;;13.90;99.90;;;;;;5121028;28;20451;-79
2021/10/02 05:31:20;;;;;;;764.97;426.50;;;13.90;99.90;;;;;;5121362;28;20792;-79
2021/10/02 05:33:48;;;;;;;1077.23;545.90;;;13.90;99.90;;;;;;5122170;28;20761;-79
2021/10/02 05:36:18;;;;;;;867.50;429.77;;;13.90;99.90;;;;;;5121124;28;20475;-79
2021/10/02 05:38:46;;;;;;;805.70;402.40;;;13.90;99.90;;;;;;5122276;28;20451;-79
2021/10/02 05:41:16;;;;;;;821.57;405.80;;;13.90;99.90;;;;;;5120861;28;20467;-79
2021/10/02 05:43:44;;;;;;;624.33;363.87;;;13.90;99.90;;;;;;5120048;28;20896;-78
2021/10/02 05:46:12;;;;;;;604.33;375.70;;;13.90;99.90;;;;;;5119559;28;21015;-79
2021/10/02 05:48:40;;;;;;;700.47;402.83;;;13.90;99.90;;;;;;5118950;28;20960;-78
2021/10/02 05:51:11;;;;;;;773.13;451.10;;;13.90;99.90;;;;;;5119347;28;20520;-78
2021/10/02 05:53:40;;;;;;;714.73;409.27;;;13.90;99.90;;;;;;5120519;28;20504;-78
2021/10/02 05:56:08;;;;;;;942.17;550.30;;;13.90;99.90;;;;;;5120706;28;20459;-78
2021/10/02 05:58:38;;;;;;;611.73;338.40;;;13.90;99.90;;;;;;5120912;28;20439;-79
2021/10/02 06:01:07;;;;;;;694.87;369.13;;;13.90;99.90;;;;;;5118904;28;20459;-78
2021/10/02 06:03:36;;;;;;;750.13;433.00;;;13.90;99.90;;;;;;5119685;28;20443;-79
2021/10/02 06:06:04;;;;;;;29.52;26.67;;;13.90;99.90;;;;;;5118630;28;20991;-79
2021/10/02 06:08:34;;;;;;;241.10;129.20;;;14.00;99.90;;;;;;5119241;28;20198;-78
2021/10/02 06:11:04;;;;;;;133.57;113.87;;;14.00;99.90;;;;;;5119544;28;20446;-78
2021/10/02 06:13:33;;;;;;;342.47;198.13;;;14.00;99.90;;;;;;5120409;28;20512;-78
2021/10/02 06:16:02;;;;;;;551.83;322.43;;;14.00;99.90;;;;;;5118227;28;20501;-78
2021/10/02 06:18:31;;;;;;;625.07;385.20;;;14.00;99.90;;;;;;5120742;28;20447;-78
2021/10/02 06:20:59;;;;;;;729.23;347.43;;;14.00;99.90;;;;;;5118949;28;20516;-78
2021/10/02 06:23:27;;;;;;;661.03;387.63;;;14.00;99.90;;;;;;5119230;28;20440;-78
2021/10/02 06:25:56;;;;;;;799.90;412.40;;;14.00;99.90;;;;;;5120342;28;20566;-79
2021/10/02 06:28:25;;;;;;;681.23;399.37;;;14.00;99.90;;;;;;5121824;28;20880;-78
2021/10/02 06:30:54;;;;;;;727.60;410.27;;;14.00;99.90;;;;;;5119477;28;20455;-78
2021/10/02 06:33:22;;;;;;;780.23;406.07;;;14.00;99.90;;;;;;5119381;28;20493;-78
2021/10/02 06:35:52;;;;;;;28.15;25.48;;;14.00;99.90;;;;;;5118301;28;20439;-78
2021/10/02 06:38:20;;;;;;;73.07;62.03;;;14.10;99.90;;;;;;5119542;28;20202;-78
2021/10/02 06:40:48;;;;;;;36.85;33.28;;;14.10;99.90;;;;;;5118348;28;20525;-78
2021/10/02 06:43:17;;;;;;;160.67;134.53;;;14.10;99.90;;;;;;5119932;28;20197;-78
2021/10/02 06:45:46;;;;;;;460.07;283.70;;;14.10;99.90;;;;;;5118774;28;20463;-79
2021/10/02 06:48:15;;;;;;;451.77;263.10;;;14.10;99.90;;;;;;5116783;28;20504;-79
2021/10/02 06:50:43;;;;;;;521.93;296.93;;;14.10;99.90;;;;;;5118301;28;20449;-78
2021/10/02 06:53:11;;;;;;;748.67;383.67;;;14.10;99.90;;;;;;5118629;28;20448;-78
2021/10/02 06:55:40;;;;;;;871.03;450.17;;;14.10;99.90;;;;;;5116954;28;20479;-79
2021/10/02 06:58:08;;;;;;;592.03;332.83;;;14.20;99.90;;;;;;5118977;28;20948;-78
2021/10/02 07:00:36;;;;;;;734.50;403.77;;;14.20;99.90;;;;;;5118110;28;20797;-78
2021/10/02 07:03:07;;;;;;;868.70;439.23;;;14.20;99.90;;;;;;5118503;28;20450;-78
2021/10/02 07:05:35;;;;;;;864.40;472.37;;;14.20;99.90;;;;;;5118760;28;20452;-78
2021/10/02 07:08:04;;;;;;;824.70;496.27;;;14.20;99.90;;;;;;5119004;28;20445;-78
2021/10/02 07:10:32;;;;;;;1017.50;543.60;;;14.20;99.90;;;;;;5117589;28;20410;-79
2021/10/02 07:13:02;;;;;;;839.67;471.27;;;14.20;99.90;;;;;;5118486;28;20924;-78
2021/10/02 07:15:30;;;;;;;1457.77;687.37;;;14.30;99.90;;;;;;5118284;28;20481;-78
2021/10/02 07:17:58;;;;;;;25.58;23.35;;;14.30;99.90;;;;;;5117769;28;20507;-79
2021/10/02 07:20:28;;;;;;;96.83;75.13;;;14.40;99.90;;;;;;5119434;28;20590;-79
2021/10/02 07:22:56;;;;;;;246.07;181.80;;;14.40;99.90;;;;;;5118975;28;20470;-79
2021/10/02 07:25:25;;;;;;;690.90;358.37;;;14.40;99.90;;;;;;5119096;28;20947;-79
2021/10/02 07:27:57;;;;;;;693.17;390.67;;;14.40;99.90;;;;;;5118636;28;20459;-78
2021/10/02 07:30:25;;;;;;;921.60;411.53;;;14.40;99.90;;;;;;5118679;28;20481;-79
2021/10/02 07:32:53;;;;;;;1579.10;619.33;;;14.40;99.90;;;;;;5119142;28;20451;-78
2021/10/02 07:35:23;;;;;;;1335.90;584.17;;;14.40;99.90;;;;;;5117775;28;20418;-79
2021/10/02 07:38:03;;;;;;;1517.60;610.47;;;14.40;99.90;;;;;;5117551;28;20438;-79
2021/10/02 07:40:32;;;;;;;1999.90;827.13;;;14.50;99.90;;;;;;5118200;28;20979;-79
2021/10/02 07:43:03;;;;;;;1653.33;665.17;;;14.50;99.90;;;;;;5118716;28;20871;-79
2021/10/02 07:45:32;;;;;;;1443.13;579.90;;;14.50;99.90;;;;;;5118256;28;20444;-79
2021/10/02 07:48:03;;;;;;;24.30;22.05;;;14.50;99.90;;;;;;5116442;28;20439;-78
2021/10/02 07:50:31;;;;;;;131.80;83.57;;;14.60;99.90;;;;;;5117922;28;20220;-79
2021/10/02 07:53:01;;;;;;;32.63;29.50;;;14.60;99.90;;;;;;5119023;28;20460;-78
2021/10/02 07:55:30;;;;;;;82.27;70.30;;;14.60;99.90;;;;;;5118070;28;20461;-78
2021/10/02 07:57:58;;;;;;;536.10;303.77;;;14.60;99.90;;;;;;5117694;28;20930;-78
2021/10/02 08:00:26;;;;;;;888.57;435.77;;;14.60;99.90;;;;;;5118527;28;20518;-78
2021/10/02 08:02:55;;;;;;;1373.23;535.40;;;14.60;99.90;;;;;;5116425;28;20450;-78
2021/10/02 08:05:25;;;;;;;1576.03;651.10;;;14.60;99.90;;;;;;5116946;28;20443;-78
2021/10/02 08:07:53;;;;;;;1615.30;705.27;;;14.60;99.90;;;;;;5115708;28;20426;-78
2021/10/02 08:10:27;;;;;;;1677.80;670.30;;;14.70;99.90;;;;;;5116131;28;20447;-78
2021/10/02 08:12:56;;;;;;;1657.13;691.40;;;14.70;99.90;;;;;;5116728;28;20441;-78
2021/10/02 08:15:24;;;;;;;1657.87;708.97;;;14.70;99.90;;;;;;5116444;28;20850;-78
2021/10/02 08:17:56;;;;;;;1702.20;662.23;;;14.70;99.90;;;;;;5116612;28;20457;-78
2021/10/02 08:20:27;;;;;;;1961.87;852.70;;;14.80;99.90;;;;;;5116549;28;20463;-78
2021/10/02 08:22:57;;;;;;;1821.83;723.00;;;14.80;99.90;;;;;;5116485;28;20732;-78
2021/10/02 08:25:27;;;;;;;1959.20;797.73;;;14.80;99.90;;;;;;5115672;28;20534;-78
2021/10/02 08:27:57;;;;;;;1999.90;933.83;;;14.80;99.90;;;;;;5115640;28;20451;-78
2021/10/02 08:30:27;;;;;;;21.88;19.80;;;14.90;99.90;;;;;;5115139;28;20471;-78
2021/10/02 08:32:56;;;;;;;252.13;149.03;;;15.00;99.90;;;;;;5116353;28;20193;-79
2021/10/02 08:35:24;;;;;;;1061.23;465.93;;;15.10;99.90;;;;;;5117457;28;20439;-78
2021/10/02 08:37:52;;;;;;;1599.33;642.30;;;15.10;99.90;;;;;;5116541;28;20426;-78
2021/10/02 08:40:22;;;;;;;1999.90;844.00;;;15.10;99.90;;;;;;5116444;28;20931;-78
2021/10/02 08:42:52;;;;;;;1999.90;896.57;;;15.10;99.90;;;;;;5116253;28;20440;-79
2021/10/02 08:45:22;;;;;;;1990.27;818.63;;;15.20;99.90;;;;;;5116133;28;20533;-78
2021/10/02 08:47:50;;;;;;;1999.90;901.10;;;15.20;99.90;;;;;;5116390;28;20486;-78
2021/10/02 08:50:19;;;;;;;1999.90;912.77;;;15.20;99.90;;;;;;5116358;28;20439;-78
2021/10/02 08:52:49;;;;;;;1999.90;940.77;;;15.30;99.90;;;;;;5118038;28;20410;-78
2021/10/02 08:55:17;;;;;;;1999.90;907.13;;;15.30;99.90;;;;;;5116800;28;20465;-78
2021/10/02 08:57:47;;;;;;;1999.90;935.27;;;15.30;99.90;;;;;;5116269;28;20512;-78
2021/10/02 09:00:22;;;;;;;1999.90;999.90;;;15.40;99.90;;;;;;5118383;28;20409;-78
2021/10/02 09:02:51;;;;;;;1999.90;931.07;;;15.40;99.90;;;;;;5120389;28;20926;-78
2021/10/02 09:05:21;;;;;;;38.47;35.50;;;15.50;99.90;;;;;;5120037;28;20516;-78
2021/10/02 09:07:51;;;;;;;1951.23;829.60;;;15.60;99.90;;;;;;5120663;28;20312;-78
2021/10/02 09:10:20;;;;;;;1999.90;816.87;;;15.70;99.90;;;;;;5121485;28;20450;-78
2021/10/02 09:12:49;;;;;;;1999.90;992.97;;;15.70;99.90;;;;;;5121340;28;20492;-78
2021/10/02 09:15:19;;;;;;;1999.90;999.90;;;15.80;99.90;;;;;;5119816;28;20452;-79
2021/10/02 09:17:48;;;;;;;1999.90;999.90;;;15.80;99.90;;;;;;5119680;28;20418;-78
2021/10/02 09:20:18;;;;;;;1999.90;999.90;;;15.80;99.90;;;;;;5119686;28;20855;-78
2021/10/02 09:22:55;;;;;;;1999.90;999.90;;;15.80;99.90;;;;;;5119159;28;20962;-78
2021/10/02 09:25:24;;;;;;;1999.90;999.90;;;15.80;99.90;;;;;;5119863;28;20439;-78
2021/10/02 09:28:09;;;;;;;1999.90;980.53;;;15.80;99.90;;;;;;5119915;28;20418;-78
2021/10/02 09:30:41;;;;;;;1999.90;932.93;;;15.90;99.90;;;;;;5119947;28;20928;-78
2021/10/02 09:33:13;;;;;;;1999.90;986.93;;;15.90;99.90;;;;;;5119791;28;20439;-79
2021/10/02 09:35:42;;;;;;;1999.90;958.87;;;15.90;99.90;;;;;;5118999;28;20444;-78
2021/10/02 09:38:12;;;;;;;1999.90;961.90;;;15.90;99.90;;;;;;5119901;28;20473;-78
2021/10/02 09:40:48;;;;;;;110.40;95.82;;;16.00;99.90;;;;;;5119844;28;20413;-78
2021/10/02 09:43:16;;;;;;;1999.90;999.90;;;16.10;99.90;;;;;;5119565;28;20280;-78
2021/10/02 09:45:48;;;;;;;1999.90;999.90;;;16.10;99.90;;;;;;5119392;28;20543;-78
2021/10/02 09:48:19;;;;;;;1999.90;978.20;;;16.20;99.90;;;;;;5119163;28;20447;-78
2021/10/02 09:50:49;;;;;;;1999.90;939.63;;;16.20;99.90;;;;;;5119216;28;20486;-78
2021/10/02 09:53:19;;;;;;;1999.90;976.87;;;16.30;99.90;;;;;;5119117;28;20424;-78
2021/10/02 09:55:49;;;;;;;1999.90;917.13;;;16.30;99.90;;;;;;5118725;28;20462;-78
2021/10/02 09:58:30;;;;;;;1999.90;804.07;;;16.30;99.90;;;;;;5119061;28;20428;-78
2021/10/02 10:01:01;;;;;;;1999.90;686.20;;;16.30;99.90;;;;;;5118770;27;20498;-78
2021/10/02 10:03:40;;;;;;;1999.90;717.10;;;16.30;99.90;;;;;;5118411;28;20433;-78
2021/10/02 10:06:17;;;;;;;1933.47;378.63;;;16.40;99.90;;;;;;5118802;28;20440;-78
2021/10/02 10:09:01;;;;;;;1999.90;660.83;;;16.40;99.90;;;;;;5119121;28;20422;-78
2021/10/02 10:11:44;;;;;;;1999.90;523.33;;;16.40;99.90;;;;;;5118243;28;20512;-78
2021/10/02 10:14:22;;;;;;;1913.77;388.33;;;16.40;99.90;;;;;;5119005;28;20418;-78
2021/10/02 10:16:52;;;;;;;1721.90;303.17;;;16.40;99.90;;;;;;5118832;28;20471;-78
2021/10/02 10:19:22;;;;;;;1767.67;319.57;;;16.50;99.90;;;;;;5118982;28;20800;-78
2021/10/02 10:22:08;;;;;;;1999.90;999.90;;;16.50;99.90;;;;;;5117021;28;20426;-78
2021/10/02 10:24:38;;;;;;;1999.90;855.13;;;16.60;99.90;;;;;;5119366;28;20205;-78
2021/10/02 10:27:07;;;;;;;1999.90;949.60;;;16.60;99.90;;;;;;5118232;28;20491;-78
2021/10/02 10:29:37;;;;;;;1789.97;286.83;;;16.70;99.90;;;;;;5118356;28;20414;-78
2021/10/02 10:32:11;;;;;;;1928.93;763.77;;;16.70;99.90;;;;;;5119942;27;20447;-78
2021/10/02 10:34:41;;;;;;;1847.80;746.20;;;16.70;99.90;;;;;;5120107;28;20432;-78
2021/10/02 10:37:11;;;;;;;1598.30;705.30;;;16.60;99.90;;;;;;5118112;28;20559;-78
2021/10/02 10:39:40;;;;;;;1699.23;722.30;;;16.60;99.90;;;;;;5118375;28;20559;-78
2021/10/02 10:42:08;;;;;;;1680.40;721.40;;;16.60;99.90;;;;;;5117806;28;20463;-78
2021/10/02 10:44:36;;;;;;;1755.20;727.77;;;16.70;99.90;;;;;;5117486;28;20978;-78
2021/10/02 10:47:05;;;;;;;1999.90;999.90;;;16.70;99.90;;;;;;5117008;28;20562;-78
2021/10/02 10:49:34;;;;;;;1999.90;999.90;;;16.70;99.90;;;;;;5118621;28;20952;-79
2021/10/02 10:52:06;;;;;;;1486.93;692.37;;;16.80;99.90;;;;;;5118045;28;20458;-78
2021/10/02 10:54:41;;;;;;;1999.90;999.90;;;16.80;99.90;;;;;;5117954;28;20490;-78
2021/10/02 10:57:33;;;;;;;1999.90;999.90;;;16.80;99.90;;;;;;5117861;28;20320;-78
2021/10/02 11:00:02;;;;;;;1999.90;999.90;;;16.90;99.90;;;;;;5117538;28;20429;-78
2021/10/02 11:02:45;;;;;;;1999.90;999.90;;;16.90;99.90;;;;;;5117784;28;20262;-79
2021/10/02 11:05:52;;;;;;;1999.90;999.90;;;17.00;99.90;;;;;;5120206;28;20744;-78
2021/10/02 11:08:22;;;;;;;1999.90;999.90;;;17.00;99.90;;;;;;5118380;28;20546;-78
2021/10/02 11:10:56;;;;;;;1999.90;999.90;;;17.00;99.90;;;;;;5119612;28;20393;-78
2021/10/02 11:13:57;;;;;;;1999.90;999.90;;;17.00;99.90;;;;;;5117812;28;20489;-78
2021/10/02 11:16:38;;;;;;;1999.90;999.90;;;17.00;99.90;;;;;;5119641;28;20875;-78
2021/10/02 11:19:29;;;;;;;1999.90;999.90;;;17.10;99.90;;;;;;5119411;28;20913;-78
2021/10/02 11:22:07;;;;;;;1999.90;999.90;;;17.00;99.90;;;;;;5117645;28;20406;-79
2021/10/02 11:24:38;;;;;;;1999.90;999.90;;;17.10;99.90;;;;;;5117221;28;20882;-78
2021/10/02 11:27:07;;;;;;;1999.90;999.90;;;17.10;99.90;;;;;;5119720;27;20459;-79
2021/10/02 11:29:36;;;;;;;1999.90;999.90;;;17.20;99.90;;;;;;5116256;28;20432;-79
2021/10/02 11:32:29;;;;;;;1999.90;999.90;;;17.30;99.90;;;;;;5118903;28;20265;-78
2021/10/02 11:35:34;;;;;;;1999.90;999.90;;;17.40;99.90;;;;;;5116943;28;20435;-79
2021/10/02 11:38:07;;;;;;;1999.90;999.90;;;17.50;99.90;;;;;;5118020;28;20237;-78
2021/10/02 11:40:51;;;;;;;1999.90;999.90;;;17.50;99.90;;;;;;5118059;28;20440;-78
2021/10/02 11:43:32;;;;;;;1999.90;999.90;;;17.60;99.90;;;;;;5117779;28;21048;-78
2021/10/02 11:46:06;;;;;;;1999.90;999.90;;;17.60;99.90;;;;;;5118113;28;20557;-79
2021/10/02 11:48:47;;;;;;;1999.90;999.90;;;17.60;99.90;;;;;;5118651;28;20442;-78
2021/10/02 11:51:33;;;;;;;1999.90;999.90;;;17.70;99.90;;;;;;5117304;28;20435;-78
2021/10/02 11:54:17;;;;;;;1999.90;724.67;;;17.70;99.90;;;;;;5117777;28;20840;-79
2021/10/02 11:57:08;;;;;;;1999.90;999.90;;;17.70;99.90;;;;;;5116463;28;20459;-79
2021/10/02 11:59:41;;;;;;;1999.90;999.90;;;17.80;99.90;;;;;;5119218;28;20469;-79
2021/10/02 12:02:11;;;;;;;1999.90;999.90;;;17.80;99.90;;;;;;5119266;28;20466;-78
2021/10/02 12:04:41;;;;;;;1999.90;584.30;;;17.90;99.90;;;;;;5118657;28;20527;-79
2021/10/02 12:07:11;;;;;;;1842.40;632.78;;;17.90;99.90;;;;;;5116220;28;20529;-78
2021/10/02 12:09:54;;;;;;;1999.90;999.90;;;18.00;99.90;;;;;;5117396;28;20268;-79
2021/10/02 12:12:23;;;;;;;1999.90;999.90;;;18.10;99.90;;;;;;5116740;28;20508;-78
2021/10/02 12:14:59;;;;;;;1999.90;999.90;;;18.10;99.90;;;;;;5119864;28;20209;-79
2021/10/02 12:17:27;;;;;;;1999.90;999.90;;;18.10;99.90;;;;;;5118858;28;20490;-79
2021/10/02 12:19:56;;;;;;;1999.90;857.70;;;18.10;99.90;;;;;;5119329;28;20446;-79
2021/10/02 12:22:28;;;;;;;1999.90;999.90;;;18.10;99.90;;;;;;5118130;28;20454;-79
2021/10/02 12:24:57;;;;;;;1999.90;557.60;;;18.20;99.90;;;;;;5118095;28;21012;-79
2021/10/02 12:27:29;;;;;;;1999.90;999.90;;;18.20;99.90;;;;;;5117080;28;20470;-78
2021/10/02 12:29:58;;;;;;;1999.90;826.50;;;18.20;99.90;;;;;;5116971;28;20497;-78
2021/10/02 12:32:30;;;;;;;1999.90;878.93;;;18.30;99.90;;;;;;5116695;28;20999;-78
2021/10/02 12:35:00;;;;;;;1999.90;822.13;;;18.30;99.90;;;;;;5116151;28;20440;-78
2021/10/02 12:37:30;;;;;;;1999.90;837.47;;;18.30;99.90;;;;;;5115506;28;21010;-78
2021/10/02 12:40:01;;;;;;;1999.90;807.87;;;18.30;99.90;;;;;;5117141;28;20510;-78
2021/10/02 12:42:35;;;;;;;1999.90;674.60;;;18.30;99.90;;;;;;5117192;28;20522;-78
2021/10/02 12:45:06;;;;;;;1999.90;999.90;;;18.30;99.90;;;;;;5114412;28;20534;-78
2021/10/02 12:47:35;;;;;;;1999.90;632.33;;;18.40;99.90;;;;;;5116277;28;20217;-78
2021/10/02 12:50:07;;;;;;;1999.90;999.90;;;18.40;99.90;;;;;;5116272;28;20531;-78
2021/10/02 12:52:37;;;;;;;1999.90;999.90;;;18.40;99.90;;;;;;5114013;28;20209;-77
2021/10/02 12:55:12;;;;;;;1999.90;718.47;;;18.40;99.90;;;;;;5115712;28;20443;-78
2021/10/02 12:57:41;;;;;;;1999.90;731.00;;;18.40;99.90;;;;;;5113448;28;20995;-77
2021/10/02 13:00:13;;;;;;;1999.90;725.27;;;18.40;99.90;;;;;;5115261;28;20480;-77
2021/10/02 13:02:43;;;;;;;1999.90;777.47;;;18.40;99.90;;;;;;5113280;28;20436;-77
2021/10/02 13:05:12;;;;;;;1999.90;840.17;;;18.40;99.90;;;;;;5114855;28;20455;-77
2021/10/02 13:07:48;;;;;;;1999.90;728.63;;;18.30;99.90;;;;;;5113695;28;20470;-77
2021/10/02 13:10:18;;;;;;;1999.90;727.23;;;18.30;99.90;;;;;;5113258;28;20435;-77
2021/10/02 13:12:53;;;;;;;1999.90;724.47;;;18.30;99.90;;;;;;5114790;28;20431;-77
2021/10/02 13:15:27;;;;;;;1999.90;880.23;;;18.30;99.90;;;;;;5113265;28;20535;-77